Time;durP1;ratioP1;P1;durP2;ratioP2;P2;SDS_P1;SDS_P2;PMS_P1;PMS_P2;Temp;Humidity;BMP_temperature;BMP_pressure;BME280_temperature;BME280_humidity;BME280_pressure;Samples;Min_cycle;Max_cycle;Signal;HPM_P1;HPM_P2
2023/09/26 00:00:05;;;;;;;0.30;0.30;;;14.60;99.90;;;;;;5028270;28;20049;-72
2023/09/26 00:02:31;;;;;;;0.20;0.20;;;14.70;99.90;;;;;;5027897;28;20050;-72
2023/09/26 00:04:58;;;;;;;0.30;0.30;;;14.60;99.90;;;;;;5027311;28;20052;-72
2023/09/26 00:07:23;;;;;;;0.28;0.28;;;14.70;99.90;;;;;;5027952;28;20049;-72
2023/09/26 00:09:49;;;;;;;0.55;0.55;;;14.70;99.90;;;;;;5027765;28;20049;-73
2023/09/26 00:12:15;;;;;;;;;;;14.70;99.90;;;;;;5028346;28;20531;-72
2023/09/26 00:14:40;;;;;;;1.08;0.63;;;14.70;99.90;;;;;;5027904;28;20403;-72
2023/09/26 00:17:06;;;;;;;1.05;1.05;;;14.70;99.90;;;;;;5027552;28;20107;-72
2023/09/26 00:19:32;;;;;;;0.30;0.30;;;14.70;99.90;;;;;;5025340;28;20103;-72
2023/09/26 00:21:57;;;;;;;0.30;0.30;;;14.70;99.90;;;;;;5024122;28;20037;-72
2023/09/26 00:24:23;;;;;;;0.30;0.30;;;14.70;99.90;;;;;;5023337;28;20084;-72
2023/09/26 00:26:49;;;;;;;0.30;0.30;;;14.70;99.90;;;;;;5025293;28;20492;-72
2023/09/26 00:29:14;;;;;;;0.20;0.20;;;14.70;99.90;;;;;;5026229;28;20562;-72
2023/09/26 00:31:40;;;;;;;;;;;14.70;99.90;;;;;;5026599;28;20401;-72
2023/09/26 00:34:06;;;;;;;0.30;0.30;;;14.60;99.90;;;;;;5024005;28;20012;-72
2023/09/26 00:36:31;;;;;;;0.20;0.20;;;14.60;99.90;;;;;;5029586;28;20053;-71
2023/09/26 00:38:57;;;;;;;0.30;0.30;;;14.60;99.90;;;;;;5029732;28;20052;-72
2023/09/26 00:41:23;;;;;;;0.30;0.30;;;14.50;99.90;;;;;;5031066;28;20392;-72
2023/09/26 00:43:48;;;;;;;;;;;14.50;99.90;;;;;;5031040;28;20128;-72
2023/09/26 00:46:15;;;;;;;0.17;0.17;;;14.40;99.90;;;;;;5011162;28;19932;-72
2023/09/26 00:48:42;;;;;;;0.30;0.30;;;14.40;99.90;;;;;;5031459;28;20420;-72
2023/09/26 00:51:08;;;;;;;0.30;0.30;;;14.30;99.90;;;;;;5030912;28;20042;-72
2023/09/26 00:53:38;;;;;;;0.20;0.20;;;14.30;99.90;;;;;;5030795;28;20057;-72
2023/09/26 00:56:04;;;;;;;0.30;0.30;;;14.20;99.90;;;;;;5028467;28;20041;-72
2023/09/26 00:58:33;;;;;;;0.30;0.30;;;14.20;99.90;;;;;;5029849;28;20081;-73
2023/09/26 01:00:58;;;;;;;0.30;0.30;;;14.20;99.90;;;;;;5030857;28;20049;-72
2023/09/26 01:03:24;;;;;;;0.20;0.20;;;14.20;99.90;;;;;;5031095;28;20049;-73
2023/09/26 01:05:50;;;;;;;0.30;0.30;;;14.10;99.90;;;;;;5030381;28;20389;-73
2023/09/26 01:08:16;;;;;;;;;;;14.10;99.90;;;;;;5030229;28;20049;-72
2023/09/26 01:10:43;;;;;;;0.30;0.30;;;14.10;99.90;;;;;;5031231;28;20016;-73
2023/09/26 01:13:09;;;;;;;0.20;0.20;;;14.00;99.90;;;;;;5028515;28;20123;-73
2023/09/26 01:15:39;;;;;;;;;;;14.00;99.90;;;;;;5030570;28;20069;-71
2023/09/26 01:18:10;;;;;;;0.28;0.28;;;14.00;99.90;;;;;;5029612;28;19924;-72
2023/09/26 01:20:40;;;;;;;0.30;0.30;;;14.00;99.90;;;;;;5029936;28;20128;-72
2023/09/26 01:23:06;;;;;;;0.28;0.28;;;13.90;99.90;;;;;;5029504;28;20045;-73
2023/09/26 01:25:35;;;;;;;0.30;0.30;;;13.80;99.90;;;;;;5029834;28;20049;-73
2023/09/26 01:28:07;;;;;;;0.30;0.30;;;13.80;99.90;;;;;;5027673;28;20045;-72
2023/09/26 01:30:37;;;;;;;0.20;0.20;;;13.70;99.90;;;;;;5025447;28;20041;-72
2023/09/26 01:33:04;;;;;;;0.20;0.20;;;13.60;99.90;;;;;;5028957;28;20515;-72
2023/09/26 01:35:30;;;;;;;0.22;0.22;;;13.60;99.90;;;;;;5030773;28;20148;-72
2023/09/26 01:37:56;;;;;;;0.30;0.30;;;13.50;99.90;;;;;;5027751;28;20067;-72
2023/09/26 01:40:22;;;;;;;0.20;0.20;;;13.50;99.90;;;;;;5026857;28;20571;-72
2023/09/26 01:42:47;;;;;;;;;;;13.40;99.90;;;;;;5029234;28;20056;-72
2023/09/26 01:45:13;;;;;;;0.38;0.38;;;13.40;99.90;;;;;;5027874;28;19959;-73
2023/09/26 01:47:40;;;;;;;;;;;13.40;99.90;;;;;;5026628;28;20432;-72
2023/09/26 01:50:07;;;;;;;0.20;0.20;;;13.30;99.90;;;;;;5027799;28;19925;-72
2023/09/26 01:52:35;;;;;;;0.85;0.85;;;13.30;99.90;;;;;;5028778;28;20545;-72
2023/09/26 01:55:06;;;;;;;0.30;0.30;;;13.30;99.90;;;;;;5026826;28;20103;-72
2023/09/26 01:57:33;;;;;;;0.30;0.30;;;13.20;99.90;;;;;;5028749;28;20050;-72
2023/09/26 02:00:13;;;;;;;0.20;0.20;;;13.10;99.90;;;;;;5029222;28;20063;-72
2023/09/26 02:02:40;;;;;;;0.20;0.20;;;13.10;99.90;;;;;;5029209;28;20049;-72
2023/09/26 02:05:14;;;;;;;0.30;0.30;;;13.00;99.90;;;;;;5027480;28;20041;-72
2023/09/26 02:07:40;;;;;;;0.30;0.30;;;13.00;99.90;;;;;;5029131;28;20154;-73
2023/09/26 02:10:06;;;;;;;0.30;0.30;;;13.00;99.90;;;;;;5028917;28;20140;-73
2023/09/26 02:12:37;;;;;;;0.30;0.30;;;12.90;99.90;;;;;;5030039;28;20037;-73
2023/09/26 02:15:05;;;;;;;0.20;0.20;;;12.90;99.90;;;;;;5027861;28;20499;-72
2023/09/26 02:17:35;;;;;;;0.40;0.40;;;12.80;99.90;;;;;;5029770;28;20049;-73
2023/09/26 02:20:12;;;;;;;0.30;0.30;;;12.80;99.90;;;;;;5028965;28;20057;-73
2023/09/26 02:22:43;;;;;;;0.30;0.30;;;12.80;99.90;;;;;;5032377;28;20034;-73
2023/09/26 02:25:12;;;;;;;0.30;0.30;;;12.70;99.90;;;;;;5029857;28;20503;-72
2023/09/26 02:27:39;;;;;;;0.30;0.30;;;12.70;99.90;;;;;;5028363;28;20484;-72
2023/09/26 02:30:06;;;;;;;0.30;0.30;;;12.70;99.90;;;;;;5028567;28;20042;-72
2023/09/26 02:32:32;;;;;;;0.30;0.30;;;12.70;99.90;;;;;;5027889;28;20250;-72
2023/09/26 02:34:58;;;;;;;0.40;0.40;;;12.70;99.90;;;;;;5043014;28;20048;-72
2023/09/26 02:37:24;;;;;;;0.40;0.40;;;12.70;99.90;;;;;;5027369;28;20049;-72
2023/09/26 02:39:49;;;;;;;0.40;0.40;;;12.70;99.90;;;;;;5026300;28;20075;-72
2023/09/26 02:42:15;;;;;;;0.30;0.30;;;12.70;99.90;;;;;;5028653;28;20146;-72
2023/09/26 02:44:41;;;;;;;0.30;0.30;;;12.60;99.90;;;;;;5029207;28;20558;-72
2023/09/26 02:47:07;;;;;;;0.30;0.30;;;12.60;99.90;;;;;;5027613;28;20049;-72
2023/09/26 02:49:32;;;;;;;0.30;0.30;;;12.60;99.90;;;;;;5028620;28;20073;-72
2023/09/26 02:51:58;;;;;;;0.30;0.30;;;12.50;99.90;;;;;;5027130;28;20037;-72
2023/09/26 02:54:25;;;;;;;0.30;0.30;;;12.50;99.90;;;;;;5027140;28;20389;-72
2023/09/26 02:56:51;;;;;;;0.30;0.30;;;12.50;99.90;;;;;;5022338;28;20045;-72
2023/09/26 02:59:17;;;;;;;0.20;0.20;;;12.40;99.90;;;;;;5027097;28;20831;-72
2023/09/26 03:01:42;;;;;;;0.40;0.40;;;12.40;99.90;;;;;;5028078;28;20095;-72
2023/09/26 03:04:08;;;;;;;0.32;0.32;;;12.40;99.90;;;;;;5028301;28;20480;-72
2023/09/26 03:06:34;;;;;;;0.20;0.20;;;12.30;99.90;;;;;;5028726;28;20510;-71
2023/09/26 03:08:59;;;;;;;0.30;0.30;;;12.30;99.90;;;;;;5027346;28;20084;-72
2023/09/26 03:11:25;;;;;;;0.50;0.50;;;12.20;99.90;;;;;;5028205;28;20061;-72
2023/09/26 03:13:51;;;;;;;0.30;0.30;;;12.20;99.90;;;;;;5027234;28;20049;-72
2023/09/26 03:16:18;;;;;;;0.30;0.30;;;12.20;99.90;;;;;;5027097;28;20061;-72
2023/09/26 03:18:45;;;;;;;0.30;0.30;;;12.20;99.90;;;;;;5025711;28;20132;-72
2023/09/26 03:21:11;;;;;;;0.30;0.30;;;12.10;99.90;;;;;;5028525;28;20063;-72
2023/09/26 03:23:37;;;;;;;0.30;0.30;;;12.20;99.90;;;;;;5028057;28;20199;-74
2023/09/26 03:26:10;;;;;;;0.30;0.30;;;12.20;99.90;;;;;;5027421;28;20451;-71
2023/09/26 03:28:36;;;;;;;0.30;0.30;;;12.20;99.90;;;;;;5028034;28;20048;-71
2023/09/26 03:31:05;;;;;;;;;;;12.10;99.90;;;;;;5027821;28;20052;-74
2023/09/26 03:33:34;;;;;;;0.85;0.85;;;12.10;99.90;;;;;;5028267;28;19936;-72
2023/09/26 03:36:00;;;;;;;0.40;0.40;;;12.10;99.90;;;;;;5028591;28;20447;-72
2023/09/26 03:38:26;;;;;;;0.50;0.50;;;12.20;99.90;;;;;;5026366;28;20128;-72
2023/09/26 03:41:04;;;;;;;5.82;1.15;;;12.20;99.90;;;;;;5027892;28;20203;-72
2023/09/26 03:43:30;;;;;;;0.47;0.40;;;12.20;99.90;;;;;;5028285;28;20046;-71
2023/09/26 03:46:06;;;;;;;0.40;0.40;;;12.10;99.90;;;;;;5026540;28;20454;-71
2023/09/26 03:48:33;;;;;;;0.40;0.40;;;12.10;99.90;;;;;;5027482;28;20050;-72
2023/09/26 03:51:13;;;;;;;0.30;0.30;;;12.10;99.90;;;;;;5027800;28;20100;-71
2023/09/26 03:53:40;;;;;;;0.30;0.30;;;12.10;99.90;;;;;;5027531;28;20386;-72
2023/09/26 03:56:07;;;;;;;0.30;0.30;;;12.10;99.90;;;;;;5027005;28;20044;-72
2023/09/26 03:58:34;;;;;;;0.77;0.77;;;12.00;99.90;;;;;;5026329;28;20054;-73
2023/09/26 04:01:12;;;;;;;0.30;0.30;;;12.00;99.90;;;;;;5027870;28;20049;-72
2023/09/26 04:03:40;;;;;;;0.38;0.38;;;12.00;99.90;;;;;;5026310;28;20049;-72
2023/09/26 04:06:06;;;;;;;0.40;0.40;;;12.00;99.90;;;;;;5026624;28;20049;-72
2023/09/26 04:08:31;;;;;;;0.30;0.30;;;11.90;99.90;;;;;;5027700;28;20050;-72
2023/09/26 04:10:58;;;;;;;0.32;0.32;;;11.90;99.90;;;;;;5026521;28;20061;-72
2023/09/26 04:13:24;;;;;;;0.30;0.30;;;11.80;99.90;;;;;;5030242;28;20041;-73
2023/09/26 04:15:50;;;;;;;0.30;0.30;;;11.80;99.90;;;;;;5030610;28;20045;-73
2023/09/26 04:18:17;;;;;;;;;;;11.80;99.90;;;;;;5031109;28;20107;-72
2023/09/26 04:20:44;;;;;;;0.30;0.30;;;11.70;99.90;;;;;;5029965;28;19925;-72
2023/09/26 04:23:10;;;;;;;0.40;0.40;;;11.70;99.90;;;;;;5029594;28;20045;-72
2023/09/26 04:25:36;;;;;;;0.40;0.40;;;11.70;99.90;;;;;;5031633;28;20058;-72
2023/09/26 04:28:03;;;;;;;0.30;0.30;;;11.70;99.90;;;;;;5030354;28;20056;-72
2023/09/26 04:30:30;;;;;;;0.50;0.50;;;11.60;99.90;;;;;;5031074;28;20044;-72
2023/09/26 04:32:56;;;;;;;0.30;0.30;;;11.60;99.90;;;;;;5030587;28;20047;-72
2023/09/26 04:35:21;;;;;;;0.30;0.30;;;11.60;99.90;;;;;;5031039;28;20171;-72
2023/09/26 04:37:47;;;;;;;0.30;0.30;;;11.60;99.90;;;;;;5027855;28;20836;-72
2023/09/26 04:40:14;;;;;;;0.40;0.40;;;10.90;99.90;;;;;;5030630;28;20055;-72
2023/09/26 04:42:41;;;;;;;0.30;0.30;;;11.70;99.90;;;;;;5030548;28;20077;-72
2023/09/26 04:45:08;;;;;;;0.30;0.30;;;11.70;99.90;;;;;;5031867;28;20049;-72
2023/09/26 04:47:35;;;;;;;0.40;0.40;;;11.80;99.90;;;;;;5029646;28;20132;-72
2023/09/26 04:50:01;;;;;;;0.40;0.40;;;11.80;99.90;;;;;;5031265;28;20041;-72
2023/09/26 04:52:27;;;;;;;;;;;11.90;99.90;;;;;;5030937;28;20096;-72
2023/09/26 04:54:53;;;;;;;0.30;0.30;;;12.00;99.90;;;;;;5030606;28;20012;-72
2023/09/26 04:57:19;;;;;;;0.30;0.30;;;12.00;99.90;;;;;;5028335;28;20049;-73
2023/09/26 04:59:44;;;;;;;0.40;0.40;;;12.10;99.90;;;;;;5045671;28;20069;-73
2023/09/26 05:02:10;;;;;;;0.30;0.30;;;12.20;99.90;;;;;;5030648;28;20041;-73
2023/09/26 05:04:36;;;;;;;0.28;0.28;;;12.30;99.90;;;;;;5030852;28;20041;-72
2023/09/26 05:07:02;;;;;;;0.30;0.30;;;12.30;99.90;;;;;;5030072;28;20056;-72
2023/09/26 05:09:27;;;;;;;;;;;12.40;99.90;;;;;;5030217;28;20084;-73
2023/09/26 05:11:53;;;;;;;0.30;0.30;;;12.40;99.90;;;;;;5029932;28;19925;-73
2023/09/26 05:14:19;;;;;;;0.30;0.30;;;12.50;99.90;;;;;;5027477;28;20045;-73
2023/09/26 05:16:45;;;;;;;0.30;0.30;;;12.50;99.90;;;;;;5027499;28;20053;-72
2023/09/26 05:19:10;;;;;;;0.38;0.38;;;12.50;99.90;;;;;;5026725;28;20069;-72
2023/09/26 05:21:36;;;;;;;0.30;0.30;;;12.50;99.90;;;;;;5027463;28;20354;-73
2023/09/26 05:24:04;;;;;;;0.40;0.40;;;12.50;99.90;;;;;;5028321;28;20115;-74
2023/09/26 05:26:30;;;;;;;0.30;0.30;;;12.50;99.90;;;;;;5028735;28;20064;-73
2023/09/26 05:28:56;;;;;;;0.22;0.22;;;12.50;99.90;;;;;;5043226;28;20041;-73
2023/09/26 05:31:21;;;;;;;0.40;0.40;;;12.40;99.90;;;;;;5027434;28;20045;-73
2023/09/26 05:33:47;;;;;;;0.30;0.30;;;12.40;99.90;;;;;;5029411;28;20072;-73
2023/09/26 05:36:13;;;;;;;0.85;0.43;;;12.30;99.90;;;;;;5029749;28;20076;-73
2023/09/26 05:38:38;;;;;;;0.57;0.57;;;12.30;99.90;;;;;;5029314;28;20481;-73
2023/09/26 05:41:05;;;;;;;0.40;0.40;;;12.30;99.90;;;;;;5030349;28;20050;-73
2023/09/26 05:43:32;;;;;;;0.38;0.38;;;12.30;99.90;;;;;;5029253;28;20131;-73
2023/09/26 05:45:59;;;;;;;0.40;0.40;;;12.20;99.90;;;;;;5029362;28;20060;-73
2023/09/26 05:48:25;;;;;;;0.30;0.30;;;12.20;99.90;;;;;;5028406;28;20053;-73
2023/09/26 05:51:02;;;;;;;0.30;0.30;;;12.20;99.90;;;;;;5028264;28;20281;-73
2023/09/26 05:53:29;;;;;;;0.38;0.38;;;12.20;99.90;;;;;;5029185;28;20052;-73
2023/09/26 05:55:55;;;;;;;0.55;0.55;;;12.20;99.90;;;;;;5045153;28;20041;-73
2023/09/26 05:58:20;;;;;;;0.38;0.38;;;12.20;99.90;;;;;;5019763;28;20050;-73
2023/09/26 06:00:46;;;;;;;0.20;0.20;;;12.20;99.90;;;;;;5039919;28;20041;-73
2023/09/26 06:03:14;;;;;;;0.30;0.30;;;12.20;99.90;;;;;;5024010;28;20094;-73
2023/09/26 06:05:40;;;;;;;0.30;0.30;;;12.20;99.90;;;;;;5026010;28;20053;-73
2023/09/26 06:08:06;;;;;;;0.40;0.40;;;12.20;99.90;;;;;;5022939;28;20068;-73
2023/09/26 06:10:31;;;;;;;0.40;0.40;;;12.20;99.90;;;;;;5024355;28;20415;-73
2023/09/26 06:12:57;;;;;;;0.30;0.30;;;12.20;99.90;;;;;;5026490;28;20049;-72
2023/09/26 06:15:23;;;;;;;0.30;0.30;;;12.30;99.90;;;;;;5026533;28;20057;-74
2023/09/26 06:17:50;;;;;;;0.40;0.40;;;12.30;99.90;;;;;;5035637;28;20132;-73
2023/09/26 06:20:16;;;;;;;0.35;0.35;;;12.30;99.90;;;;;;5031911;28;20410;-73
2023/09/26 06:22:42;;;;;;;0.30;0.30;;;12.40;99.90;;;;;;5029975;28;20590;-73
2023/09/26 06:25:08;;;;;;;0.35;0.35;;;12.40;99.90;;;;;;5030218;28;20048;-73
2023/09/26 06:27:35;;;;;;;;;;;12.50;99.90;;;;;;5035877;28;20419;-73
2023/09/26 06:30:01;;;;;;;;;;;12.60;99.90;;;;;;5038387;28;20335;-73
2023/09/26 06:32:26;;;;;;;0.25;0.25;;;12.60;99.90;;;;;;5029640;28;19971;-73
2023/09/26 06:34:57;;;;;;;0.30;0.30;;;12.70;99.90;;;;;;5038036;28;20134;-74
2023/09/26 06:37:23;;;;;;;0.30;0.30;;;12.90;99.90;;;;;;5030631;28;20046;-73
2023/09/26 06:39:49;;;;;;;0.30;0.30;;;13.00;99.90;;;;;;5028421;28;20118;-74
2023/09/26 06:42:14;;;;;;;0.93;0.90;;;13.10;99.90;;;;;;5035271;28;20125;-73
2023/09/26 06:44:40;;;;;;;;;;;13.20;99.90;;;;;;5031114;28;20045;-73
2023/09/26 06:47:06;;;;;;;0.30;0.30;;;13.20;99.90;;;;;;5035771;28;19975;-73
2023/09/26 06:49:34;;;;;;;0.80;0.80;;;13.30;99.90;;;;;;5034255;28;20061;-73
2023/09/26 06:52:00;;;;;;;1.50;0.55;;;13.40;99.90;;;;;;5036571;28;20048;-73
2023/09/26 06:54:26;;;;;;;0.30;0.30;;;13.50;99.90;;;;;;5037761;28;20053;-73
2023/09/26 06:56:51;;;;;;;0.22;0.22;;;13.60;99.90;;;;;;5016474;28;20172;-73
2023/09/26 06:59:17;;;;;;;0.30;0.30;;;13.60;99.90;;;;;;5022647;28;20050;-73
2023/09/26 07:01:43;;;;;;;0.25;0.25;;;13.80;99.90;;;;;;5034792;28;20141;-73
2023/09/26 07:04:14;;;;;;;0.47;0.47;;;13.90;99.90;;;;;;5036379;28;20048;-72
2023/09/26 07:06:40;;;;;;;0.30;0.30;;;13.90;99.90;;;;;;5033758;28;20777;-72
2023/09/26 07:09:07;;;;;;;0.20;0.20;;;14.00;99.90;;;;;;5033792;28;20514;-72
2023/09/26 07:11:33;;;;;;;0.30;0.30;;;14.20;99.90;;;;;;5036946;28;20049;-72
2023/09/26 07:13:59;;;;;;;;;;;14.20;99.90;;;;;;5035122;28;20385;-72
2023/09/26 07:16:25;;;;;;;0.43;0.43;;;14.30;99.90;;;;;;5035647;28;20007;-73
2023/09/26 07:18:51;;;;;;;0.30;0.30;;;14.40;99.90;;;;;;5022208;28;20164;-73
2023/09/26 07:21:17;;;;;;;;;;;14.50;99.90;;;;;;5030711;28;20049;-73
2023/09/26 07:23:42;;;;;;;0.40;0.40;;;14.50;99.90;;;;;;5026026;28;20275;-72
2023/09/26 07:26:16;;;;;;;0.30;0.30;;;14.60;99.90;;;;;;5026231;28;20125;-73
2023/09/26 07:28:44;;;;;;;0.25;0.25;;;14.70;99.90;;;;;;5025150;28;20432;-73
2023/09/26 07:31:15;;;;;;;0.30;0.30;;;14.80;99.90;;;;;;5025937;28;20076;-73
2023/09/26 07:33:41;;;;;;;0.30;0.30;;;14.90;99.90;;;;;;5024648;28;20164;-73
2023/09/26 07:36:07;;;;;;;;;;;15.00;99.90;;;;;;5026795;28;20045;-74
2023/09/26 07:38:34;;;;;;;0.30;0.30;;;15.00;99.90;;;;;;5017449;28;19935;-74
2023/09/26 07:41:00;;;;;;;0.13;0.13;;;15.10;99.90;;;;;;5025802;28;20469;-73
2023/09/26 07:43:29;;;;;;;0.28;0.28;;;15.10;99.90;;;;;;5025209;28;20045;-73
2023/09/26 07:46:04;;;;;;;0.47;0.47;;;15.20;99.90;;;;;;5028579;28;20053;-74
2023/09/26 07:48:30;;;;;;;0.30;0.30;;;15.20;99.90;;;;;;5028964;28;20127;-74
2023/09/26 07:50:56;;;;;;;;;;;15.30;99.90;;;;;;5031273;28;20053;-74
2023/09/26 07:53:22;;;;;;;0.30;0.30;;;15.40;99.90;;;;;;5030563;28;20367;-74
2023/09/26 07:55:48;;;;;;;;;;;15.40;99.90;;;;;;5029419;28;20049;-74
2023/09/26 07:58:15;;;;;;;0.30;0.30;;;15.50;99.90;;;;;;5029991;28;20114;-73
2023/09/26 08:00:41;;;;;;;0.22;0.22;;;15.60;99.90;;;;;;5028472;28;20107;-74
2023/09/26 08:03:07;;;;;;;0.30;0.30;;;15.70;99.90;;;;;;5026882;28;20038;-74
2023/09/26 08:05:32;;;;;;;;;;;15.70;99.90;;;;;;5031055;28;20061;-73
2023/09/26 08:07:59;;;;;;;0.28;0.28;;;15.90;99.90;;;;;;5028540;28;19929;-73
2023/09/26 08:10:25;;;;;;;0.32;0.32;;;16.00;99.90;;;;;;5032270;28;20122;-73
2023/09/26 08:12:50;;;;;;;;;;;16.10;99.90;;;;;;5032430;28;20034;-73
2023/09/26 08:15:16;;;;;;;0.45;0.45;;;16.20;99.90;;;;;;5030098;28;20017;-73
2023/09/26 08:17:42;;;;;;;;;;;16.30;99.90;;;;;;5027980;28;20500;-74
2023/09/26 08:20:09;;;;;;;0.20;0.20;;;16.50;99.90;;;;;;5030482;28;19925;-74
2023/09/26 08:22:34;;;;;;;0.40;0.40;;;16.60;99.90;;;;;;5031034;28;20139;-73
2023/09/26 08:25:00;;;;;;;;;;;16.80;99.90;;;;;;5029225;28;20511;-73
2023/09/26 08:27:26;;;;;;;0.20;0.20;;;16.90;99.90;;;;;;5031163;28;19967;-73
2023/09/26 08:29:51;;;;;;;;;;;17.00;99.90;;;;;;5030108;28;20840;-73
2023/09/26 08:32:17;;;;;;;0.30;0.30;;;17.10;99.90;;;;;;5030567;28;19925;-73
2023/09/26 08:34:43;;;;;;;;;;;17.20;99.90;;;;;;5029385;28;20152;-73
2023/09/26 08:37:10;;;;;;;0.20;0.20;;;17.20;99.90;;;;;;5030408;28;19925;-73
2023/09/26 08:39:36;;;;;;;0.38;0.38;;;17.20;99.90;;;;;;5029013;28;20520;-73
2023/09/26 08:42:03;;;;;;;;;;;17.10;99.90;;;;;;5032082;28;20048;-73
2023/09/26 08:44:28;;;;;;;0.30;0.30;;;17.10;99.90;;;;;;5027269;28;19971;-73
2023/09/26 08:46:55;;;;;;;;;;;17.00;99.90;;;;;;5027663;28;20610;-73
2023/09/26 08:49:21;;;;;;;0.20;0.20;;;17.00;99.90;;;;;;5028770;28;20016;-74
2023/09/26 08:51:47;;;;;;;0.60;0.60;;;16.90;99.90;;;;;;5025694;28;20095;-74
2023/09/26 08:54:12;;;;;;;;;;;16.90;99.90;;;;;;5027228;28;20674;-74
2023/09/26 08:56:38;;;;;;;0.35;0.35;;;16.80;99.90;;;;;;5023588;28;19964;-74
2023/09/26 08:59:04;;;;;;;;;;;16.80;99.90;;;;;;5028919;28;20517;-74
2023/09/26 09:01:31;;;;;;;0.90;0.80;;;16.90;99.90;;;;;;5027268;28;20371;-74
2023/09/26 09:03:57;;;;;;;0.30;0.30;;;16.90;99.90;;;;;;5034253;28;20079;-74
2023/09/26 09:06:22;;;;;;;;;;;16.80;99.90;;;;;;5028813;28;20053;-74
2023/09/26 09:08:48;;;;;;;0.20;0.20;;;16.90;99.90;;;;;;5028897;28;19927;-74
2023/09/26 09:11:14;;;;;;;;;;;16.90;99.90;;;;;;5030628;28;20744;-74
2023/09/26 09:13:40;;;;;;;0.28;0.28;;;17.00;99.90;;;;;;5026991;28;19932;-74
2023/09/26 09:16:08;;;;;;;0.30;0.30;;;17.30;99.90;;;;;;5030136;28;20057;-74
2023/09/26 09:18:34;;;;;;;0.30;0.30;;;17.60;99.90;;;;;;5027698;28;20057;-74
2023/09/26 09:21:00;;;;;;;;;;;17.90;99.90;;;;;;5029617;28;20056;-74
2023/09/26 09:23:26;;;;;;;0.38;0.38;;;18.20;99.90;;;;;;5026631;28;20364;-74
2023/09/26 09:25:51;;;;;;;;;;;18.50;99.90;;;;;;5028203;28;20457;-74
2023/09/26 09:28:21;;;;;;;0.28;0.28;;;18.80;99.90;;;;;;5027863;28;19925;-74
2023/09/26 09:30:48;;;;;;;0.63;0.60;;;19.10;99.90;;;;;;5028344;28;20053;-73
2023/09/26 09:33:15;;;;;;;0.32;0.32;;;19.30;99.90;;;;;;5031146;28;20076;-73
2023/09/26 09:35:41;;;;;;;0.20;0.20;;;19.40;99.90;;;;;;5025492;28;20049;-73
2023/09/26 09:38:12;;;;;;;0.20;0.20;;;19.50;99.90;;;;;;5030529;28;20060;-74
2023/09/26 09:40:38;;;;;;;0.57;0.57;;;19.40;99.90;;;;;;5028604;28;20052;-74
2023/09/26 09:43:04;;;;;;;0.30;0.30;;;19.40;99.90;;;;;;5028898;28;20037;-74
2023/09/26 09:45:33;;;;;;;0.60;0.35;;;19.40;99.90;;;;;;5025982;28;20056;-74
2023/09/26 09:48:03;;;;;;;0.38;0.38;;;19.40;99.90;;;;;;5027506;28;20046;-74
2023/09/26 09:50:31;;;;;;;0.20;0.20;;;19.50;99.90;;;;;;5027326;28;20103;-74
2023/09/26 09:53:01;;;;;;;0.40;0.40;;;19.60;99.90;;;;;;5026497;28;20041;-74
2023/09/26 09:55:37;;;;;;;0.47;0.47;;;19.70;99.90;;;;;;5028176;28;20045;-74
2023/09/26 09:58:08;;;;;;;0.50;0.50;;;19.90;99.90;;;;;;5020564;28;20138;-73
2023/09/26 10:00:36;;;;;;;0.82;0.65;;;20.00;99.90;;;;;;5024170;28;20033;-74
2023/09/26 10:03:04;;;;;;;0.38;0.32;;;20.20;99.90;;;;;;5025935;28;20645;-74
2023/09/26 10:05:31;;;;;;;0.30;0.30;;;20.30;99.90;;;;;;5029098;28;20053;-74
2023/09/26 10:07:58;;;;;;;0.45;0.45;;;20.40;99.90;;;;;;5028686;28;20056;-73
2023/09/26 10:10:25;;;;;;;0.30;0.30;;;20.50;99.90;;;;;;5025853;28;20163;-74
2023/09/26 10:12:51;;;;;;;7.68;1.67;;;20.50;99.90;;;;;;5028905;28;20045;-74
2023/09/26 10:15:17;;;;;;;0.65;0.65;;;20.50;99.90;;;;;;5028298;28;20069;-74
2023/09/26 10:17:48;;;;;;;0.28;0.28;;;20.60;99.90;;;;;;5029257;28;20061;-75
2023/09/26 10:20:15;;;;;;;0.20;0.20;;;20.70;99.90;;;;;;5028574;28;20045;-75
2023/09/26 10:22:43;;;;;;;0.40;0.40;;;20.70;99.90;;;;;;5028688;28;20084;-74
2023/09/26 10:25:18;;;;;;;0.40;0.40;;;20.80;99.90;;;;;;5024619;28;20037;-75
2023/09/26 10:27:47;;;;;;;0.20;0.20;;;20.90;99.90;;;;;;5027070;28;20138;-75
2023/09/26 10:30:18;;;;;;;1.08;0.88;;;20.90;99.90;;;;;;5027288;28;20048;-75
2023/09/26 10:32:45;;;;;;;0.57;0.57;;;20.90;99.90;;;;;;5028433;28;20134;-77
2023/09/26 10:35:13;;;;;;;0.20;0.20;;;21.00;99.90;;;;;;5028762;28;20056;-75
2023/09/26 10:37:44;;;;;;;1.15;0.80;;;21.00;99.90;;;;;;5027375;28;20053;-75
2023/09/26 10:40:14;;;;;;;0.25;0.25;;;21.20;99.90;;;;;;5027392;28;20042;-74
2023/09/26 10:42:48;;;;;;;0.55;0.55;;;21.20;99.90;;;;;;5028136;28;20045;-74
2023/09/26 10:45:15;;;;;;;0.47;0.47;;;21.20;99.90;;;;;;5025089;28;20056;-74
2023/09/26 10:47:41;;;;;;;0.30;0.30;;;21.20;99.90;;;;;;5027094;28;20049;-74
2023/09/26 10:50:09;;;;;;;0.38;0.38;;;21.10;99.90;;;;;;5018097;28;20820;-73
2023/09/26 10:52:35;;;;;;;0.35;0.35;;;21.10;99.90;;;;;;5023415;28;20105;-73
2023/09/26 10:55:02;;;;;;;0.75;0.75;;;21.10;99.90;;;;;;5023313;28;20142;-73
2023/09/26 10:57:28;;;;;;;0.47;0.47;;;21.10;99.90;;;;;;5023168;28;20417;-73
2023/09/26 10:59:54;;;;;;;0.20;0.20;;;21.20;99.90;;;;;;5022520;28;20045;-73
2023/09/26 11:02:22;;;;;;;0.70;0.35;;;21.30;99.90;;;;;;5020428;28;20114;-73
2023/09/26 11:04:47;;;;;;;0.20;0.20;;;21.30;99.90;;;;;;5020759;28;20057;-73
2023/09/26 11:07:15;;;;;;;0.40;0.40;;;21.30;99.90;;;;;;5023029;28;20041;-73
2023/09/26 11:09:42;;;;;;;0.20;0.20;;;21.40;99.90;;;;;;5022351;28;20075;-73
2023/09/26 11:12:08;;;;;;;0.47;0.47;;;21.40;99.90;;;;;;5022371;28;20229;-74
2023/09/26 11:14:35;;;;;;;0.20;0.20;;;21.40;99.90;;;;;;5021620;28;21030;-74
2023/09/26 11:17:00;;;;;;;0.28;0.28;;;21.30;99.90;;;;;;5024333;28;20180;-74
2023/09/26 11:19:27;;;;;;;0.40;0.40;;;21.40;99.90;;;;;;5022823;28;20691;-74
2023/09/26 11:21:54;;;;;;;0.30;0.30;;;21.30;99.90;;;;;;5022578;28;20052;-74
2023/09/26 11:24:27;;;;;;;0.20;0.20;;;21.30;99.90;;;;;;5023072;28;20049;-74
2023/09/26 11:26:56;;;;;;;1.75;0.98;;;21.30;99.90;;;;;;5023024;28;20052;-73
2023/09/26 11:29:23;;;;;;;0.52;0.30;;;21.30;99.90;;;;;;5020787;28;20179;-74
2023/09/26 11:31:50;;;;;;;0.25;0.25;;;21.30;99.90;;;;;;5024852;28;20037;-73
2023/09/26 11:34:19;;;;;;;0.40;0.40;;;21.30;99.90;;;;;;5027663;28;20049;-74
2023/09/26 11:36:51;;;;;;;0.22;0.22;;;21.30;99.90;;;;;;5027174;28;20050;-74
2023/09/26 11:39:18;;;;;;;1.20;0.55;;;21.20;99.90;;;;;;5024230;28;20132;-74
2023/09/26 11:41:44;;;;;;;0.40;0.40;;;21.10;99.90;;;;;;5025432;28;20108;-73
2023/09/26 11:44:12;;;;;;;0.60;0.60;;;21.00;99.90;;;;;;5024970;28;20935;-74
2023/09/26 11:46:45;;;;;;;0.63;0.63;;;20.90;99.90;;;;;;5026525;28;20111;-73
2023/09/26 11:49:15;;;;;;;0.30;0.30;;;20.90;99.90;;;;;;5026340;28;20049;-73
2023/09/26 11:51:41;;;;;;;0.20;0.20;;;21.00;99.90;;;;;;5024907;28;20504;-74
2023/09/26 11:54:07;;;;;;;0.38;0.38;;;21.00;99.90;;;;;;5023647;28;20056;-74
2023/09/26 11:56:34;;;;;;;0.20;0.20;;;21.00;99.90;;;;;;5025793;28;20096;-74
2023/09/26 11:59:06;;;;;;;0.30;0.30;;;21.00;99.90;;;;;;5025320;28;20073;-74
2023/09/26 12:01:33;;;;;;;0.20;0.20;;;21.00;99.90;;;;;;5024473;28;20128;-74
2023/09/26 12:04:06;;;;;;;0.50;0.50;;;21.10;99.90;;;;;;5025603;28;20045;-74
2023/09/26 12:06:34;;;;;;;0.20;0.20;;;21.20;99.90;;;;;;5040889;28;20350;-74
2023/09/26 12:08:59;;;;;;;0.30;0.30;;;21.30;99.90;;;;;;5025953;28;20124;-73
2023/09/26 12:11:25;;;;;;;0.68;0.52;;;21.40;99.90;;;;;;5025517;28;20061;-73
2023/09/26 12:13:51;;;;;;;0.50;0.50;;;21.50;99.90;;;;;;5025040;28;20076;-73
2023/09/26 12:16:17;;;;;;;0.30;0.30;;;21.60;99.90;;;;;;5025970;28;20053;-73
2023/09/26 12:18:42;;;;;;;0.60;0.60;;;21.70;99.90;;;;;;5026210;28;20119;-74
2023/09/26 12:21:09;;;;;;;0.38;0.38;;;21.70;99.90;;;;;;5025138;28;20050;-74
2023/09/26 12:23:35;;;;;;;0.30;0.30;;;21.80;99.90;;;;;;5022497;28;20141;-74
2023/09/26 12:26:01;;;;;;;0.50;0.50;;;21.80;99.90;;;;;;5026414;28;20124;-74
2023/09/26 12:28:27;;;;;;;0.30;0.30;;;21.70;99.90;;;;;;5025014;28;20525;-74
2023/09/26 12:30:53;;;;;;;0.70;0.65;;;21.70;99.90;;;;;;5027648;28;20055;-75
2023/09/26 12:33:20;;;;;;;0.60;0.60;;;21.80;99.90;;;;;;5027528;28;20045;-74
2023/09/26 12:35:45;;;;;;;0.35;0.35;;;22.00;99.90;;;;;;5028889;28;20111;-74
2023/09/26 12:38:11;;;;;;;0.20;0.20;;;22.10;99.90;;;;;;5029053;28;20069;-74
2023/09/26 12:40:38;;;;;;;0.30;0.30;;;22.30;99.90;;;;;;5029976;28;20044;-74
2023/09/26 12:43:04;;;;;;;0.20;0.20;;;22.50;99.90;;;;;;5027201;28;20168;-74
2023/09/26 12:45:30;;;;;;;0.32;0.32;;;22.60;99.90;;;;;;5029191;28;20151;-74
2023/09/26 12:47:56;;;;;;;0.25;0.25;;;22.60;99.90;;;;;;5029088;28;20175;-74
2023/09/26 12:50:21;;;;;;;0.55;0.55;;;22.60;99.90;;;;;;5030583;28;20878;-74
2023/09/26 12:52:47;;;;;;;0.85;0.85;;;22.80;99.90;;;;;;5027950;28;20496;-74